createdAt,value
2018-12-13T00:00:00.793Z,6.80
2018-12-13T00:02:28.651Z,6.50
2018-12-13T00:04:56.031Z,6.50
2018-12-13T00:07:23.433Z,6.73
2018-12-13T00:09:50.821Z,6.83
2018-12-13T00:12:18.223Z,7.03
2018-12-13T00:14:45.719Z,8.67
2018-12-13T00:17:13.089Z,7.83
2018-12-13T00:19:40.559Z,7.73
2018-12-13T00:22:07.947Z,8.27
2018-12-13T00:24:35.343Z,8.87
2018-12-13T00:27:02.763Z,7.87
2018-12-13T00:29:30.157Z,7.77
2018-12-13T00:31:57.606Z,8.90
2018-12-13T00:34:25.080Z,7.30
2018-12-13T00:36:52.479Z,8.50
2018-12-13T00:39:19.881Z,8.20
2018-12-13T00:41:47.286Z,8.30
2018-12-13T00:44:14.693Z,7.70
2018-12-13T00:46:42.079Z,8.60
2018-12-13T00:49:09.784Z,8.10
2018-12-13T00:51:37.215Z,8.20
2018-12-13T00:54:04.674Z,8.20
2018-12-13T00:56:32.144Z,8.27
2018-12-13T00:58:59.545Z,8.33
2018-12-13T01:01:27.026Z,7.47
2018-12-13T01:03:54.465Z,7.77
2018-12-13T01:06:21.852Z,8.20
2018-12-13T01:08:49.254Z,7.97
2018-12-13T01:11:16.649Z,7.70
2018-12-13T01:13:44.059Z,7.83
2018-12-13T01:16:13.665Z,8.23
2018-12-13T01:18:41.134Z,9.20
2018-12-13T01:21:08.641Z,7.27
2018-12-13T01:23:36.038Z,8.37
2018-12-13T01:26:03.422Z,8.00
2018-12-13T01:28:30.814Z,7.63
2018-12-13T01:30:58.233Z,7.90
2018-12-13T01:33:26.634Z,8.00
2018-12-13T01:35:56.545Z,8.07
2018-12-13T01:38:24.282Z,8.27
2018-12-13T01:40:51.935Z,7.63
2018-12-13T01:43:20.418Z,7.43
2018-12-13T01:45:47.858Z,7.50
2018-12-13T01:48:15.263Z,7.50
2018-12-13T01:50:44.350Z,6.93
2018-12-13T01:53:11.751Z,7.30
2018-12-13T01:55:39.168Z,7.03
2018-12-13T01:58:06.563Z,7.33
2018-12-13T02:00:33.955Z,7.00
2018-12-13T02:03:01.351Z,6.90
2018-12-13T02:05:28.764Z,7.67
2018-12-13T02:07:56.160Z,7.33
2018-12-13T02:10:23.546Z,9.57
2018-12-13T02:12:50.947Z,7.97
2018-12-13T02:15:18.613Z,7.40
2018-12-13T02:17:46.000Z,7.70
2018-12-13T02:20:13.415Z,7.00
2018-12-13T02:22:40.889Z,7.20
2018-12-13T02:25:08.350Z,7.80
2018-12-13T02:27:35.733Z,7.60
2018-12-13T02:30:03.279Z,7.70
2018-12-13T02:32:30.746Z,7.20
2018-12-13T02:34:58.137Z,7.47
2018-12-13T02:37:25.546Z,7.80
2018-12-13T02:39:52.955Z,8.13
2018-12-13T02:42:20.718Z,7.37
2018-12-13T02:44:48.122Z,7.73
2018-12-13T02:47:15.599Z,8.20
2018-12-13T02:49:43.038Z,10.37
2018-12-13T02:52:10.429Z,7.37
2018-12-13T02:54:37.833Z,8.10
2018-12-13T02:57:05.226Z,7.17
2018-12-13T02:59:32.605Z,8.30
2018-12-13T03:02:00.031Z,7.73
2018-12-13T03:04:27.418Z,8.00
2018-12-13T03:06:54.809Z,8.30
2018-12-13T03:09:22.323Z,8.63
2018-12-13T03:11:49.784Z,8.27
2018-12-13T03:14:17.239Z,8.57
2018-12-13T03:16:44.697Z,7.67
2018-12-13T03:19:12.094Z,7.87
2018-12-13T03:21:39.494Z,7.90
2018-12-13T03:24:06.910Z,8.50
2018-12-13T03:26:34.301Z,8.67
2018-12-13T03:29:01.688Z,7.67
2018-12-13T03:31:29.090Z,8.03
2018-12-13T03:33:56.502Z,10.37
2018-12-13T03:36:23.910Z,8.40
2018-12-13T03:38:51.300Z,8.40
2018-12-13T03:41:18.684Z,9.03
2018-12-13T03:43:46.161Z,7.70
2018-12-13T03:46:13.582Z,8.30
2018-12-13T03:48:40.971Z,8.93
2018-12-13T03:51:08.403Z,8.60
2018-12-13T03:53:35.910Z,7.60
2018-12-13T03:56:03.313Z,7.70
2018-12-13T03:58:30.727Z,8.57
2018-12-13T04:00:58.113Z,8.43
2018-12-13T04:03:25.505Z,8.47
2018-12-13T04:05:52.879Z,8.30
2018-12-13T04:08:20.285Z,7.43
2018-12-13T04:10:47.687Z,7.00
2018-12-13T04:13:15.141Z,7.57
2018-12-13T04:15:42.633Z,9.83
2018-12-13T04:18:10.081Z,9.07
2018-12-13T04:20:37.477Z,7.83
2018-12-13T04:23:04.874Z,8.80
2018-12-13T04:25:32.274Z,8.13
2018-12-13T04:28:06.716Z,8.70
2018-12-13T04:30:34.114Z,9.77
2018-12-13T04:33:01.655Z,8.03
2018-12-13T04:35:29.055Z,8.80
2018-12-13T04:37:56.521Z,8.60
2018-12-13T04:40:23.915Z,8.40
2018-12-13T04:42:51.342Z,8.83
2018-12-13T04:45:18.722Z,7.63
2018-12-13T04:47:46.166Z,8.20
2018-12-13T04:50:13.621Z,8.50
2018-12-13T04:52:41.009Z,9.10
2018-12-13T04:55:08.416Z,8.83
2018-12-13T04:57:35.814Z,9.53
2018-12-13T05:00:03.526Z,8.80
2018-12-13T05:02:30.942Z,8.37
2018-12-13T05:04:58.358Z,8.43
2018-12-13T05:07:25.757Z,8.47
2018-12-13T05:09:53.230Z,8.10
2018-12-13T05:12:20.641Z,8.97
2018-12-13T05:14:48.017Z,8.27
2018-12-13T05:17:15.414Z,7.93
2018-12-13T05:19:42.861Z,8.50
2018-12-13T05:22:10.263Z,9.67
2018-12-13T05:24:37.647Z,8.00
2018-12-13T05:27:05.238Z,9.23
2018-12-13T05:29:32.636Z,10.20
2018-12-13T05:32:00.018Z,10.17
2018-12-13T05:34:27.468Z,9.93
2018-12-13T05:36:54.933Z,10.80
2018-12-13T05:39:22.340Z,9.80
2018-12-13T05:41:49.734Z,9.23
2018-12-13T05:44:19.094Z,10.87
2018-12-13T05:46:46.498Z,9.60
2018-12-13T05:49:14.449Z,10.70
2018-12-13T05:51:42.366Z,9.47
2018-12-13T05:54:10.265Z,9.40
2018-12-13T05:56:37.733Z,10.33
2018-12-13T05:59:05.126Z,10.40
2018-12-13T06:01:32.537Z,11.60
2018-12-13T06:03:59.922Z,10.37
2018-12-13T06:06:27.348Z,10.77
2018-12-13T06:08:54.739Z,11.13
2018-12-13T06:11:22.126Z,10.43
2018-12-13T06:13:49.533Z,11.30
2018-12-13T06:16:16.949Z,11.90
2018-12-13T06:18:44.350Z,11.47
2018-12-13T06:21:11.998Z,11.17
2018-12-13T06:23:39.431Z,12.07
2018-12-13T06:26:06.901Z,11.17
2018-12-13T06:28:34.314Z,10.60
2018-12-13T06:31:01.677Z,11.87
2018-12-13T06:33:29.076Z,11.10
2018-12-13T06:35:56.453Z,11.60
2018-12-13T06:38:30.079Z,11.37
2018-12-13T06:40:57.449Z,10.20
2018-12-13T06:43:24.855Z,11.77
2018-12-13T06:45:52.276Z,11.57
2018-12-13T06:48:19.645Z,10.67
2018-12-13T06:50:47.058Z,12.10
2018-12-13T06:53:14.462Z,13.27
2018-12-13T06:55:41.861Z,12.00
2018-12-13T06:58:09.256Z,11.37
2018-12-13T07:00:36.651Z,12.07
2018-12-13T07:03:04.065Z,12.70
2018-12-13T07:05:31.486Z,13.53
2018-12-13T07:07:58.890Z,29.90
2018-12-13T07:10:26.293Z,13.97
2018-12-13T07:12:53.698Z,16.80
2018-12-13T07:15:21.124Z,12.53
2018-12-13T07:17:48.530Z,11.30
2018-12-13T07:20:15.934Z,14.17
2018-12-13T07:22:43.380Z,11.80
2018-12-13T07:25:10.792Z,14.77
2018-12-13T07:27:38.192Z,14.00
2018-12-13T07:30:07.729Z,12.30
2018-12-13T07:32:35.266Z,13.23
2018-12-13T07:35:02.665Z,11.63
2018-12-13T07:37:30.057Z,13.40
2018-12-13T07:39:57.453Z,12.70
2018-12-13T07:42:24.854Z,14.97
2018-12-13T07:44:52.250Z,13.83
2018-12-13T07:47:19.678Z,12.83
2018-12-13T07:49:47.140Z,12.90
2018-12-13T07:52:14.575Z,15.70
2018-12-13T07:54:42.021Z,15.17
2018-12-13T07:57:09.431Z,15.70
2018-12-13T07:59:36.824Z,12.37
2018-12-13T08:02:04.285Z,14.60
2018-12-13T08:04:31.746Z,14.73
2018-12-13T08:06:59.155Z,12.73
2018-12-13T08:09:26.640Z,14.10
2018-12-13T08:11:54.073Z,12.60
2018-12-13T08:14:21.565Z,12.57
2018-12-13T08:16:48.972Z,13.47
2018-12-13T08:19:16.394Z,14.57
2018-12-13T08:21:43.768Z,14.40
2018-12-13T08:24:11.199Z,12.87
2018-12-13T08:26:38.591Z,18.30
2018-12-13T08:29:06.063Z,12.60
2018-12-13T08:31:33.438Z,12.00
2018-12-13T08:34:00.854Z,12.83
2018-12-13T08:36:28.233Z,13.13
2018-12-13T08:38:55.634Z,15.23
2018-12-13T08:41:23.047Z,13.23
2018-12-13T08:43:50.458Z,13.43
2018-12-13T08:46:17.863Z,13.00
2018-12-13T08:48:45.258Z,12.70
2018-12-13T08:51:12.650Z,14.50
2018-12-13T08:53:40.074Z,12.00
2018-12-13T08:56:07.460Z,14.57
2018-12-13T08:58:34.863Z,13.00
2018-12-13T09:01:02.298Z,13.13
2018-12-13T09:03:29.692Z,12.87
2018-12-13T09:05:57.197Z,13.90
2018-12-13T09:08:24.598Z,14.03
2018-12-13T09:10:52.105Z,12.00
2018-12-13T09:13:19.504Z,13.40
2018-12-13T09:15:47.003Z,13.27
2018-12-13T09:18:14.402Z,11.90
2018-12-13T09:20:42.027Z,14.60
2018-12-13T09:23:09.637Z,12.50
2018-12-13T09:25:37.118Z,11.93
2018-12-13T09:28:04.639Z,12.20
2018-12-13T09:30:32.097Z,14.30
2018-12-13T09:32:59.485Z,13.27
2018-12-13T09:35:26.882Z,16.23
2018-12-13T09:37:54.341Z,11.03
2018-12-13T09:40:21.738Z,11.80
2018-12-13T09:42:49.181Z,11.80
2018-12-13T09:45:16.575Z,11.80
2018-12-13T09:47:44.297Z,11.33
2018-12-13T09:50:17.883Z,11.80
2018-12-13T09:53:01.178Z,15.30
2018-12-13T09:55:29.235Z,13.77
2018-12-13T09:57:56.694Z,12.17
2018-12-13T10:00:27.008Z,13.00
2018-12-13T10:02:54.503Z,12.00
2018-12-13T10:05:21.941Z,12.27
2018-12-13T10:07:49.376Z,14.37
2018-12-13T10:10:16.767Z,10.87
2018-12-13T10:12:44.172Z,12.03
2018-12-13T10:15:11.547Z,13.13
2018-12-13T10:17:38.965Z,12.50
2018-12-13T10:20:06.389Z,12.37
2018-12-13T10:22:33.781Z,14.90
2018-12-13T10:25:01.174Z,12.63
2018-12-13T10:27:28.618Z,13.20
2018-12-13T10:29:56.023Z,13.77
2018-12-13T10:32:23.423Z,13.30
2018-12-13T10:34:50.950Z,12.50
2018-12-13T10:37:18.322Z,13.20
2018-12-13T10:39:45.724Z,14.17
2018-12-13T10:42:13.201Z,12.60
2018-12-13T10:44:41.869Z,13.40
2018-12-13T10:47:09.286Z,12.97
2018-12-13T10:49:36.691Z,12.90
2018-12-13T10:52:04.141Z,12.13
2018-12-13T10:54:31.551Z,13.57
2018-12-13T10:56:58.969Z,13.57
2018-12-13T10:59:26.338Z,14.13
2018-12-13T11:01:59.459Z,12.00
2018-12-13T11:04:26.849Z,11.77
2018-12-13T11:06:54.250Z,12.47
2018-12-13T11:09:21.647Z,12.43
2018-12-13T11:11:49.026Z,13.00
2018-12-13T11:14:16.427Z,12.03
2018-12-13T11:16:43.812Z,13.40
2018-12-13T11:19:11.233Z,13.90
2018-12-13T11:21:38.618Z,14.20
2018-12-13T11:24:06.089Z,13.60
2018-12-13T11:26:33.509Z,13.40
2018-12-13T11:29:12.769Z,13.03
2018-12-13T11:31:40.208Z,12.20
2018-12-13T11:34:07.626Z,12.57
2018-12-13T11:36:35.040Z,13.67
2018-12-13T11:39:09.402Z,13.30
2018-12-13T11:41:36.820Z,14.10
2018-12-13T11:44:04.222Z,12.13
2018-12-13T11:46:31.627Z,13.53
2018-12-13T11:48:59.025Z,13.33
2018-12-13T11:51:26.427Z,11.17
2018-12-13T11:53:53.829Z,11.53
2018-12-13T11:56:21.359Z,11.70
2018-12-13T11:58:48.750Z,11.27
2018-12-13T12:01:16.177Z,10.70
2018-12-13T12:03:43.577Z,11.80
2018-12-13T12:06:10.987Z,10.07
2018-12-13T12:08:38.365Z,14.57
2018-12-13T12:11:05.774Z,10.67
2018-12-13T12:13:33.196Z,12.00
2018-12-13T12:16:00.622Z,11.07
2018-12-13T12:18:28.019Z,10.87
2018-12-13T12:20:55.458Z,13.30
2018-12-13T12:23:22.863Z,11.33
2018-12-13T12:25:50.254Z,12.20
2018-12-13T12:28:17.653Z,10.63
2018-12-13T12:30:45.039Z,10.90
2018-12-13T12:33:12.441Z,11.20
2018-12-13T12:35:44.742Z,11.43
2018-12-13T12:38:12.217Z,10.50
2018-12-13T12:40:39.605Z,10.60
2018-12-13T12:43:06.994Z,10.30
2018-12-13T12:45:34.405Z,10.57
2018-12-13T12:48:01.810Z,11.23
2018-12-13T12:50:29.296Z,10.83
2018-12-13T12:52:56.670Z,10.53
2018-12-13T12:55:24.073Z,10.70
2018-12-13T12:57:51.459Z,10.30
2018-12-13T13:00:18.858Z,10.43
2018-12-13T13:02:47.583Z,10.93
2018-12-13T13:05:15.133Z,10.87
2018-12-13T13:07:42.521Z,9.30
2018-12-13T13:10:10.070Z,10.40
2018-12-13T13:12:37.465Z,10.40
2018-12-13T13:15:05.471Z,11.40
2018-12-13T13:17:32.899Z,10.20
2018-12-13T13:20:00.290Z,12.27
2018-12-13T13:22:27.766Z,10.87
2018-12-13T13:24:55.165Z,12.37
2018-12-13T13:27:23.549Z,10.17
2018-12-13T13:29:50.935Z,10.67
2018-12-13T13:32:18.341Z,11.73
2018-12-13T13:34:45.734Z,11.00
2018-12-13T13:37:13.466Z,10.70
2018-12-13T13:39:40.877Z,11.77
2018-12-13T13:42:08.334Z,9.90
2018-12-13T13:44:37.631Z,9.67
2018-12-13T13:47:05.089Z,11.87
2018-12-13T13:49:32.569Z,10.57
2018-12-13T13:52:00.070Z,10.70
2018-12-13T13:54:27.466Z,12.43
2018-12-13T13:56:54.851Z,11.10
2018-12-13T13:59:22.249Z,11.00
2018-12-13T14:01:49.649Z,11.53
2018-12-13T14:04:17.051Z,10.00
2018-12-13T14:06:44.453Z,10.83
2018-12-13T14:09:11.914Z,10.27
2018-12-13T14:11:39.309Z,12.10
2018-12-13T14:14:06.710Z,10.80
2018-12-13T14:16:34.078Z,10.10
2018-12-13T14:19:01.473Z,11.63
2018-12-13T14:21:28.875Z,11.40
2018-12-13T14:23:56.325Z,19.43
2018-12-13T14:26:23.724Z,12.80
2018-12-13T14:28:51.123Z,11.20
2018-12-13T14:31:18.514Z,13.10
2018-12-13T14:33:45.972Z,11.43
2018-12-13T14:36:13.375Z,10.77
2018-12-13T14:38:40.778Z,10.90
2018-12-13T14:41:08.158Z,12.27
2018-12-13T14:43:35.557Z,13.03
2018-12-13T14:46:03.026Z,11.80
2018-12-13T14:48:30.430Z,13.10
2018-12-13T14:50:57.802Z,11.90
2018-12-13T14:53:25.206Z,11.30
2018-12-13T14:55:52.599Z,11.57
2018-12-13T14:58:20.006Z,10.77
2018-12-13T15:00:47.399Z,13.87
2018-12-13T15:03:14.832Z,13.23
2018-12-13T15:05:42.221Z,12.17
2018-12-13T15:08:09.605Z,11.50
2018-12-13T15:10:36.995Z,13.77
2018-12-13T15:13:04.389Z,26.23
2018-12-13T15:15:31.840Z,11.23
2018-12-13T15:17:59.294Z,12.20
2018-12-13T15:20:26.720Z,10.43
2018-12-13T15:22:54.198Z,12.10
2018-12-13T15:25:21.609Z,11.07
2018-12-13T15:27:49.003Z,10.93
2018-12-13T15:30:16.413Z,12.20
2018-12-13T15:32:43.792Z,11.00
2018-12-13T15:35:11.186Z,12.90
2018-12-13T15:37:38.561Z,13.13
2018-12-13T15:40:07.262Z,13.93
2018-12-13T15:42:35.056Z,11.57
2018-12-13T15:45:02.514Z,15.17
2018-12-13T15:47:29.915Z,11.00
2018-12-13T15:49:57.358Z,11.90
2018-12-13T15:52:24.755Z,14.50
2018-12-13T15:54:52.182Z,15.50
2018-12-13T15:57:19.638Z,11.30
2018-12-13T15:59:47.067Z,11.50
2018-12-13T16:02:14.487Z,11.07
2018-12-13T16:04:41.865Z,13.80
2018-12-13T16:07:09.246Z,11.37
2018-12-13T16:09:36.633Z,14.30
2018-12-13T16:12:04.094Z,10.40
2018-12-13T16:14:31.514Z,10.43
2018-12-13T16:16:58.951Z,11.37
2018-12-13T16:19:26.326Z,10.37
2018-12-13T16:21:53.795Z,9.90
2018-12-13T16:24:21.231Z,10.57
2018-12-13T16:26:48.620Z,12.13
2018-12-13T16:29:16.001Z,11.77
2018-12-13T16:31:43.418Z,11.27
2018-12-13T16:34:10.821Z,11.03
2018-12-13T16:36:38.205Z,12.07
2018-12-13T16:39:07.957Z,10.73
2018-12-13T16:41:35.359Z,11.50
2018-12-13T16:44:02.853Z,10.50
2018-12-13T16:46:30.272Z,11.17
2018-12-13T16:48:57.671Z,10.30
2018-12-13T16:51:26.365Z,12.00
2018-12-13T16:53:54.601Z,10.97
2018-12-13T16:56:22.022Z,10.53
2018-12-13T16:58:49.429Z,11.00
2018-12-13T17:01:16.837Z,10.03
2018-12-13T17:03:44.242Z,13.20
2018-12-13T17:06:11.698Z,13.03
2018-12-13T17:08:39.083Z,10.10
2018-12-13T17:11:06.489Z,11.93
2018-12-13T17:13:33.997Z,12.13
2018-12-13T17:16:01.382Z,10.60
2018-12-13T17:18:28.782Z,11.63
2018-12-13T17:20:56.179Z,12.07
2018-12-13T17:23:23.577Z,11.47
2018-12-13T17:25:50.975Z,12.17
2018-12-13T17:28:18.402Z,10.87
2018-12-13T17:30:45.826Z,12.00
2018-12-13T17:33:13.207Z,12.47
2018-12-13T17:35:40.826Z,10.40
2018-12-13T17:38:08.301Z,10.43
2018-12-13T17:40:35.698Z,10.70
2018-12-13T17:43:03.097Z,12.90
2018-12-13T17:45:32.474Z,12.30
2018-12-13T17:48:00.276Z,10.07
2018-12-13T17:50:27.706Z,10.40
2018-12-13T17:52:55.117Z,12.27
2018-12-13T17:55:22.527Z,8.80
2018-12-13T17:57:49.898Z,8.87
2018-12-13T18:00:17.277Z,10.53
2018-12-13T18:02:44.714Z,9.80
2018-12-13T18:05:12.131Z,11.50
2018-12-13T18:07:39.529Z,9.70
2018-12-13T18:10:09.686Z,10.27
2018-12-13T18:12:37.095Z,10.27
2018-12-13T18:15:05.307Z,10.00
2018-12-13T18:17:32.702Z,12.20
2018-12-13T18:20:00.093Z,10.10
2018-12-13T18:22:27.506Z,10.13
2018-12-13T18:24:54.902Z,9.47
2018-12-13T18:27:22.358Z,10.70
2018-12-13T18:29:49.721Z,9.37
2018-12-13T18:32:17.114Z,10.23
2018-12-13T18:34:44.561Z,10.23
2018-12-13T18:37:11.946Z,12.03
2018-12-13T18:39:39.369Z,10.10
2018-12-13T18:42:06.770Z,14.43
2018-12-13T18:44:34.154Z,9.83
2018-12-13T18:47:01.565Z,10.93
2018-12-13T18:49:29.017Z,10.90
2018-12-13T18:51:56.447Z,10.20
2018-12-13T18:54:23.829Z,9.43
2018-12-13T18:56:51.218Z,10.60
2018-12-13T18:59:18.621Z,11.27
2018-12-13T19:01:46.054Z,11.50
2018-12-13T19:04:13.545Z,10.80
2018-12-13T19:06:40.947Z,9.93
2018-12-13T19:09:08.358Z,12.73
2018-12-13T19:11:35.856Z,11.97
2018-12-13T19:14:03.372Z,11.30
2018-12-13T19:16:30.778Z,13.40
2018-12-13T19:18:58.219Z,11.30
2018-12-13T19:21:25.597Z,12.57
2018-12-13T19:23:53.032Z,11.87
2018-12-13T19:26:20.429Z,13.77
2018-12-13T19:28:47.873Z,13.57
2018-12-13T19:31:15.370Z,11.43
2018-12-13T19:33:42.762Z,11.07
2018-12-13T19:36:10.150Z,14.77
2018-12-13T19:38:37.720Z,12.07
2018-12-13T19:41:05.107Z,13.43
2018-12-13T19:43:32.540Z,11.60
2018-12-13T19:48:43.182Z,11.23
2018-12-13T19:51:10.600Z,11.63
2018-12-13T19:53:38.033Z,12.23
2018-12-13T19:56:05.418Z,12.27
2018-12-13T19:58:32.830Z,12.27
2018-12-13T20:01:00.245Z,12.33
2018-12-13T20:03:27.717Z,12.63
2018-12-13T20:05:55.128Z,14.17
2018-12-13T20:08:22.517Z,12.43
2018-12-13T20:10:54.579Z,11.23
2018-12-13T20:13:19.320Z,10.93
2018-12-13T20:15:46.697Z,10.73
2018-12-13T20:18:14.207Z,11.83
2018-12-13T20:20:41.644Z,11.63
2018-12-13T20:23:09.051Z,17.97
2018-12-13T20:25:36.429Z,11.13
2018-12-13T20:28:03.839Z,13.97
2018-12-13T20:30:31.316Z,13.67
2018-12-13T20:32:58.721Z,11.20
2018-12-13T20:35:26.175Z,11.77
2018-12-13T20:37:53.966Z,10.90
2018-12-13T20:40:21.452Z,14.60
2018-12-13T20:42:48.847Z,11.43
2018-12-13T20:45:16.264Z,11.80
2018-12-13T20:47:43.690Z,12.57
2018-12-13T20:50:11.099Z,12.43
2018-12-13T20:52:38.501Z,11.80
2018-12-13T20:55:05.972Z,11.97
2018-12-13T20:57:33.415Z,10.60
2018-12-13T21:00:00.920Z,11.40
2018-12-13T21:02:28.322Z,10.93
2018-12-13T21:04:55.833Z,10.30
2018-12-13T21:07:37.932Z,13.60
2018-12-13T21:10:06.230Z,11.40
2018-12-13T21:12:33.652Z,13.53
2018-12-13T21:15:01.079Z,12.10
2018-12-13T21:17:28.457Z,13.53
2018-12-13T21:19:55.866Z,13.00
2018-12-13T21:22:23.285Z,12.00
2018-12-13T21:24:50.742Z,13.93
2018-12-13T21:27:18.162Z,11.57
2018-12-13T21:29:45.591Z,11.73
2018-12-13T21:32:12.967Z,11.10
2018-12-13T21:34:40.422Z,12.23
2018-12-13T21:37:07.839Z,14.10
2018-12-13T21:39:35.346Z,11.60
2018-12-13T21:42:02.743Z,11.13
2018-12-13T21:44:31.005Z,12.83
2018-12-13T21:46:58.406Z,11.97
2018-12-13T21:49:25.855Z,14.73
2018-12-13T21:51:53.249Z,12.13
2018-12-13T21:54:20.654Z,13.20
2018-12-13T21:56:48.355Z,14.10
2018-12-13T21:59:15.737Z,13.00
2018-12-13T22:01:43.141Z,12.93
2018-12-13T22:04:10.536Z,15.03
2018-12-13T22:06:38.009Z,11.17
2018-12-13T22:09:06.376Z,13.97
2018-12-13T22:11:33.761Z,13.13
2018-12-13T22:14:01.149Z,17.80
2018-12-13T22:16:28.566Z,13.20
2018-12-13T22:18:55.981Z,12.83
2018-12-13T22:21:23.465Z,12.10
2018-12-13T22:23:50.866Z,14.10
2018-12-13T22:26:18.272Z,11.30
2018-12-13T22:28:45.666Z,12.80
2018-12-13T22:31:13.071Z,12.53
2018-12-13T22:33:40.469Z,10.60
2018-12-13T22:36:07.861Z,12.60
2018-12-13T22:38:35.354Z,11.53
2018-12-13T22:41:03.994Z,11.07
2018-12-13T22:43:31.833Z,11.10
2018-12-13T22:46:01.186Z,11.43
2018-12-13T22:48:28.597Z,11.50
2018-12-13T22:50:56.032Z,12.13
2018-12-13T22:53:23.465Z,10.70
2018-12-13T22:55:50.832Z,10.50
2018-12-13T22:58:18.270Z,11.57
2018-12-13T23:00:45.721Z,11.40
2018-12-13T23:03:13.120Z,11.63
2018-12-13T23:05:40.541Z,13.60
2018-12-13T23:08:07.951Z,9.93
2018-12-13T23:10:35.362Z,11.50
2018-12-13T23:13:02.814Z,11.97
2018-12-13T23:15:30.523Z,13.90
2018-12-13T23:17:57.945Z,12.00
2018-12-13T23:20:25.344Z,13.50
2018-12-13T23:22:52.762Z,12.13
2018-12-13T23:25:20.186Z,14.63
2018-12-13T23:27:47.589Z,13.73
2018-12-13T23:30:15.001Z,13.40
2018-12-13T23:32:42.401Z,20.00
2018-12-13T23:35:09.850Z,14.37
2018-12-13T23:37:37.248Z,12.70
2018-12-13T23:40:04.721Z,14.63
2018-12-13T23:42:32.201Z,13.60
2018-12-13T23:44:59.625Z,13.93
2018-12-13T23:47:27.017Z,13.97
2018-12-13T23:49:54.509Z,12.47
2018-12-13T23:52:21.914Z,14.17
2018-12-13T23:54:49.315Z,12.37
2018-12-13T23:57:16.699Z,12.20
2018-12-13T23:59:44.098Z,13.00
